sensor_id;sensor_type;location;lat;lon;timestamp;P1;durP1;ratioP1;P2;durP2;ratioP2
2259;SDS011;333;48.800;9.530;2023-02-01T00:01:41;3.57;;;2.53;;
2259;SDS011;333;48.800;9.530;2023-02-01T00:04:08;3.53;;;2.80;;
2259;SDS011;333;48.800;9.530;2023-02-01T00:06:37;3.27;;;2.97;;
2259;SDS011;333;48.800;9.530;2023-02-01T00:09:04;3.00;;;2.67;;
2259;SDS011;333;48.800;9.530;2023-02-01T00:11:31;6.67;;;3.03;;
2259;SDS011;333;48.800;9.530;2023-02-01T00:13:59;3.23;;;2.87;;
2259;SDS011;333;48.800;9.530;2023-02-01T00:16:27;5.30;;;2.97;;
2259;SDS011;333;48.800;9.530;2023-02-01T00:18:56;2.87;;;2.50;;
2259;SDS011;333;48.800;9.530;2023-02-01T00:21:24;3.20;;;2.90;;
2259;SDS011;333;48.800;9.530;2023-02-01T00:23:53;2.80;;;2.60;;
2259;SDS011;333;48.800;9.530;2023-02-01T00:26:22;2.60;;;2.40;;
2259;SDS011;333;48.800;9.530;2023-02-01T00:28:50;3.20;;;2.53;;
2259;SDS011;333;48.800;9.530;2023-02-01T00:31:17;2.20;;;2.00;;
2259;SDS011;333;48.800;9.530;2023-02-01T00:33:46;2.37;;;2.20;;
2259;SDS011;333;48.800;9.530;2023-02-01T00:36:14;2.17;;;1.97;;
2259;SDS011;333;48.800;9.530;2023-02-01T00:38:42;2.20;;;2.00;;
2259;SDS011;333;48.800;9.530;2023-02-01T00:41:12;3.30;;;2.50;;
2259;SDS011;333;48.800;9.530;2023-02-01T00:43:40;4.37;;;2.30;;
2259;SDS011;333;48.800;9.530;2023-02-01T00:46:07;2.33;;;2.13;;
2259;SDS011;333;48.800;9.530;2023-02-01T00:48:35;1.50;;;1.40;;
2259;SDS011;333;48.800;9.530;2023-02-01T00:51:02;2.67;;;2.30;;
2259;SDS011;333;48.800;9.530;2023-02-01T00:53:30;2.07;;;1.87;;
2259;SDS011;333;48.800;9.530;2023-02-01T00:55:58;2.40;;;2.03;;
2259;SDS011;333;48.800;9.530;2023-02-01T00:58:26;1.87;;;1.57;;
2259;SDS011;333;48.800;9.530;2023-02-01T01:01:00;2.20;;;2.00;;
2259;SDS011;333;48.800;9.530;2023-02-01T01:03:28;2.40;;;1.80;;
2259;SDS011;333;48.800;9.530;2023-02-01T01:05:58;2.13;;;1.80;;
2259;SDS011;333;48.800;9.530;2023-02-01T01:08:26;1.60;;;1.50;;
2259;SDS011;333;48.800;9.530;2023-02-01T01:10:54;2.70;;;2.13;;
2259;SDS011;333;48.800;9.530;2023-02-01T01:13:21;4.53;;;2.20;;
2259;SDS011;333;48.800;9.530;2023-02-01T01:15:50;1.70;;;1.60;;
2259;SDS011;333;48.800;9.530;2023-02-01T01:18:17;2.20;;;2.00;;
2259;SDS011;333;48.800;9.530;2023-02-01T01:20:45;1.60;;;1.50;;
2259;SDS011;333;48.800;9.530;2023-02-01T01:23:12;2.37;;;2.07;;
2259;SDS011;333;48.800;9.530;2023-02-01T01:25:40;1.57;;;1.47;;
2259;SDS011;333;48.800;9.530;2023-02-01T01:28:07;2.47;;;2.20;;
2259;SDS011;333;48.800;9.530;2023-02-01T01:30:35;1.90;;;1.80;;
2259;SDS011;333;48.800;9.530;2023-02-01T01:33:03;1.70;;;1.60;;
2259;SDS011;333;48.800;9.530;2023-02-01T01:35:32;2.40;;;1.40;;
2259;SDS011;333;48.800;9.530;2023-02-01T01:37:59;4.13;;;1.20;;
2259;SDS011;333;48.800;9.530;2023-02-01T01:40:27;2.40;;;1.97;;
2259;SDS011;333;48.800;9.530;2023-02-01T01:42:55;2.53;;;1.50;;
2259;SDS011;333;48.800;9.530;2023-02-01T01:45:24;2.20;;;1.73;;
2259;SDS011;333;48.800;9.530;2023-02-01T01:47:52;2.23;;;2.03;;
2259;SDS011;333;48.800;9.530;2023-02-01T01:50:23;1.70;;;1.20;;
2259;SDS011;333;48.800;9.530;2023-02-01T01:52:51;1.70;;;1.60;;
2259;SDS011;333;48.800;9.530;2023-02-01T01:55:21;1.67;;;1.50;;
2259;SDS011;333;48.800;9.530;2023-02-01T01:57:51;1.27;;;1.17;;
2259;SDS011;333;48.800;9.530;2023-02-01T02:00:20;1.30;;;1.20;;
2259;SDS011;333;48.800;9.530;2023-02-01T02:02:50;1.77;;;1.67;;
2259;SDS011;333;48.800;9.530;2023-02-01T02:05:20;1.90;;;1.40;;
2259;SDS011;333;48.800;9.530;2023-02-01T02:07:49;2.50;;;1.87;;
2259;SDS011;333;48.800;9.530;2023-02-01T02:10:19;2.03;;;1.83;;
2259;SDS011;333;48.800;9.530;2023-02-01T02:13:06;3.03;;;1.40;;
2259;SDS011;333;48.800;9.530;2023-02-01T02:15:34;2.03;;;1.90;;
2259;SDS011;333;48.800;9.530;2023-02-01T02:18:04;2.27;;;1.83;;
2259;SDS011;333;48.800;9.530;2023-02-01T02:23:33;2.00;;;1.90;;
2259;SDS011;333;48.800;9.530;2023-02-01T02:26:24;2.10;;;2.00;;
2259;SDS011;333;48.800;9.530;2023-02-01T02:28:59;3.13;;;1.40;;
2259;SDS011;333;48.800;9.530;2023-02-01T02:34:23;2.30;;;2.10;;
2259;SDS011;333;48.800;9.530;2023-02-01T02:36:55;2.20;;;1.50;;
2259;SDS011;333;48.800;9.530;2023-02-01T02:39:28;4.00;;;1.70;;
2259;SDS011;333;48.800;9.530;2023-02-01T02:41:58;2.30;;;1.70;;
2259;SDS011;333;48.800;9.530;2023-02-01T02:44:46;1.70;;;1.60;;
2259;SDS011;333;48.800;9.530;2023-02-01T02:47:33;2.00;;;1.73;;
2259;SDS011;333;48.800;9.530;2023-02-01T02:50:05;2.17;;;1.97;;
2259;SDS011;333;48.800;9.530;2023-02-01T02:52:55;1.60;;;1.50;;
2259;SDS011;333;48.800;9.530;2023-02-01T02:55:43;2.30;;;2.13;;
2259;SDS011;333;48.800;9.530;2023-02-01T02:58:10;3.10;;;2.03;;
2259;SDS011;333;48.800;9.530;2023-02-01T03:00:56;1.90;;;1.77;;
2259;SDS011;333;48.800;9.530;2023-02-01T03:03:42;2.50;;;2.30;;
2259;SDS011;333;48.800;9.530;2023-02-01T03:06:35;1.73;;;1.63;;
2259;SDS011;333;48.800;9.530;2023-02-01T03:09:04;1.93;;;1.80;;
2259;SDS011;333;48.800;9.530;2023-02-01T03:11:33;2.40;;;2.17;;
2259;SDS011;333;48.800;9.530;2023-02-01T03:14:15;2.13;;;1.90;;
2259;SDS011;333;48.800;9.530;2023-02-01T03:16:45;1.80;;;1.60;;
2259;SDS011;333;48.800;9.530;2023-02-01T03:19:14;4.30;;;2.10;;
2259;SDS011;333;48.800;9.530;2023-02-01T03:21:45;2.00;;;1.90;;
2259;SDS011;333;48.800;9.530;2023-02-01T03:24:15;2.60;;;2.40;;
2259;SDS011;333;48.800;9.530;2023-02-01T03:26:44;2.00;;;1.63;;
2259;SDS011;333;48.800;9.530;2023-02-01T03:29:15;2.20;;;2.00;;
2259;SDS011;333;48.800;9.530;2023-02-01T03:31:44;2.10;;;2.00;;
2259;SDS011;333;48.800;9.530;2023-02-01T03:34:11;2.03;;;1.83;;
2259;SDS011;333;48.800;9.530;2023-02-01T03:36:39;2.63;;;2.43;;
2259;SDS011;333;48.800;9.530;2023-02-01T03:39:09;2.97;;;1.93;;
2259;SDS011;333;48.800;9.530;2023-02-01T03:41:40;1.83;;;1.70;;
2259;SDS011;333;48.800;9.530;2023-02-01T03:44:09;2.07;;;1.97;;
2259;SDS011;333;48.800;9.530;2023-02-01T03:46:45;3.43;;;2.17;;
2259;SDS011;333;48.800;9.530;2023-02-01T03:49:16;1.97;;;1.87;;
2259;SDS011;333;48.800;9.530;2023-02-01T03:51:45;1.80;;;1.70;;
2259;SDS011;333;48.800;9.530;2023-02-01T03:54:15;2.33;;;2.07;;
2259;SDS011;333;48.800;9.530;2023-02-01T03:56:44;3.60;;;2.37;;
2259;SDS011;333;48.800;9.530;2023-02-01T03:59:12;3.60;;;3.20;;
2259;SDS011;333;48.800;9.530;2023-02-01T04:01:40;3.70;;;2.40;;
2259;SDS011;333;48.800;9.530;2023-02-01T04:04:07;2.80;;;2.60;;
2259;SDS011;333;48.800;9.530;2023-02-01T04:06:35;2.83;;;2.53;;
2259;SDS011;333;48.800;9.530;2023-02-01T04:09:04;2.03;;;1.90;;
2259;SDS011;333;48.800;9.530;2023-02-01T04:11:33;2.50;;;2.30;;
2259;SDS011;333;48.800;9.530;2023-02-01T04:14:03;2.67;;;2.30;;
2259;SDS011;333;48.800;9.530;2023-02-01T04:16:31;1.67;;;1.57;;
2259;SDS011;333;48.800;9.530;2023-02-01T04:18:59;2.60;;;2.40;;
2259;SDS011;333;48.800;9.530;2023-02-01T04:21:26;2.63;;;2.37;;
2259;SDS011;333;48.800;9.530;2023-02-01T04:23:54;2.43;;;2.20;;
2259;SDS011;333;48.800;9.530;2023-02-01T04:26:21;2.30;;;2.10;;
2259;SDS011;333;48.800;9.530;2023-02-01T04:28:50;2.73;;;2.53;;
2259;SDS011;333;48.800;9.530;2023-02-01T04:31:18;2.40;;;2.20;;
2259;SDS011;333;48.800;9.530;2023-02-01T04:33:50;2.43;;;2.23;;
2259;SDS011;333;48.800;9.530;2023-02-01T04:36:17;3.83;;;2.53;;
2259;SDS011;333;48.800;9.530;2023-02-01T04:38:46;2.90;;;2.63;;
2259;SDS011;333;48.800;9.530;2023-02-01T04:41:14;3.40;;;2.40;;
2259;SDS011;333;48.800;9.530;2023-02-01T04:43:44;2.93;;;2.70;;
2259;SDS011;333;48.800;9.530;2023-02-01T04:46:12;3.47;;;2.40;;
2259;SDS011;333;48.800;9.530;2023-02-01T04:48:40;2.60;;;2.40;;
2259;SDS011;333;48.800;9.530;2023-02-01T04:51:07;1.87;;;1.77;;
2259;SDS011;333;48.800;9.530;2023-02-01T04:53:35;2.10;;;1.87;;
2259;SDS011;333;48.800;9.530;2023-02-01T04:56:03;2.37;;;1.83;;
2259;SDS011;333;48.800;9.530;2023-02-01T04:58:31;3.17;;;2.73;;
2259;SDS011;333;48.800;9.530;2023-02-01T05:00:58;2.80;;;2.60;;
2259;SDS011;333;48.800;9.530;2023-02-01T05:03:29;2.83;;;2.63;;
2259;SDS011;333;48.800;9.530;2023-02-01T05:05:56;2.07;;;1.97;;
2259;SDS011;333;48.800;9.530;2023-02-01T05:08:23;2.30;;;2.10;;
2259;SDS011;333;48.800;9.530;2023-02-01T05:10:52;2.63;;;2.43;;
2259;SDS011;333;48.800;9.530;2023-02-01T05:13:19;1.80;;;1.70;;
2259;SDS011;333;48.800;9.530;2023-02-01T05:16:04;2.47;;;2.27;;
2259;SDS011;333;48.800;9.530;2023-02-01T05:18:33;2.67;;;2.33;;
2259;SDS011;333;48.800;9.530;2023-02-01T05:21:00;2.77;;;2.50;;
2259;SDS011;333;48.800;9.530;2023-02-01T05:23:27;2.57;;;2.27;;
2259;SDS011;333;48.800;9.530;2023-02-01T05:25:58;2.70;;;2.50;;
2259;SDS011;333;48.800;9.530;2023-02-01T05:28:25;3.20;;;2.90;;
2259;SDS011;333;48.800;9.530;2023-02-01T05:30:53;3.50;;;2.57;;
2259;SDS011;333;48.800;9.530;2023-02-01T05:33:20;2.33;;;2.10;;
2259;SDS011;333;48.800;9.530;2023-02-01T05:35:49;3.00;;;2.37;;
2259;SDS011;333;48.800;9.530;2023-02-01T05:38:16;2.23;;;2.03;;
2259;SDS011;333;48.800;9.530;2023-02-01T05:40:43;2.60;;;2.40;;
2259;SDS011;333;48.800;9.530;2023-02-01T05:43:14;3.30;;;2.20;;
2259;SDS011;333;48.800;9.530;2023-02-01T05:45:42;3.30;;;2.13;;
2259;SDS011;333;48.800;9.530;2023-02-01T05:48:10;2.30;;;1.83;;
2259;SDS011;333;48.800;9.530;2023-02-01T05:50:37;1.93;;;1.80;;
2259;SDS011;333;48.800;9.530;2023-02-01T05:53:06;2.30;;;2.10;;
2259;SDS011;333;48.800;9.530;2023-02-01T05:55:35;2.10;;;1.90;;
2259;SDS011;333;48.800;9.530;2023-02-01T05:58:04;2.03;;;1.93;;
2259;SDS011;333;48.800;9.530;2023-02-01T06:00:31;2.00;;;1.80;;
2259;SDS011;333;48.800;9.530;2023-02-01T06:02:58;1.80;;;1.70;;
2259;SDS011;333;48.800;9.530;2023-02-01T06:05:26;2.10;;;1.70;;
2259;SDS011;333;48.800;9.530;2023-02-01T06:07:53;3.17;;;1.93;;
2259;SDS011;333;48.800;9.530;2023-02-01T06:10:22;1.67;;;1.57;;
2259;SDS011;333;48.800;9.530;2023-02-01T06:12:49;2.87;;;2.07;;
2259;SDS011;333;48.800;9.530;2023-02-01T06:15:17;1.70;;;1.60;;
2259;SDS011;333;48.800;9.530;2023-02-01T06:17:45;1.77;;;1.67;;
2259;SDS011;333;48.800;9.530;2023-02-01T06:20:13;2.13;;;1.93;;
2259;SDS011;333;48.800;9.530;2023-02-01T06:22:41;1.37;;;1.27;;
2259;SDS011;333;48.800;9.530;2023-02-01T06:25:09;2.13;;;2.03;;
2259;SDS011;333;48.800;9.530;2023-02-01T06:27:38;1.33;;;1.23;;
2259;SDS011;333;48.800;9.530;2023-02-01T06:30:06;2.00;;;1.80;;
2259;SDS011;333;48.800;9.530;2023-02-01T06:32:34;2.30;;;1.70;;
2259;SDS011;333;48.800;9.530;2023-02-01T06:35:03;1.87;;;1.77;;
2259;SDS011;333;48.800;9.530;2023-02-01T06:37:30;1.77;;;1.67;;
2259;SDS011;333;48.800;9.530;2023-02-01T06:39:58;3.47;;;2.07;;
2259;SDS011;333;48.800;9.530;2023-02-01T06:42:25;1.53;;;1.43;;
2259;SDS011;333;48.800;9.530;2023-02-01T06:44:54;1.93;;;1.63;;
2259;SDS011;333;48.800;9.530;2023-02-01T06:47:21;4.37;;;2.17;;
2259;SDS011;333;48.800;9.530;2023-02-01T06:49:48;2.23;;;2.00;;
2259;SDS011;333;48.800;9.530;2023-02-01T06:52:16;2.27;;;1.53;;
2259;SDS011;333;48.800;9.530;2023-02-01T06:54:44;3.10;;;2.00;;
2259;SDS011;333;48.800;9.530;2023-02-01T06:57:11;2.53;;;2.33;;
2259;SDS011;333;48.800;9.530;2023-02-01T06:59:41;5.07;;;2.00;;
2259;SDS011;333;48.800;9.530;2023-02-01T07:02:10;3.53;;;2.30;;
2259;SDS011;333;48.800;9.530;2023-02-01T07:04:38;2.57;;;2.37;;
2259;SDS011;333;48.800;9.530;2023-02-01T07:07:05;3.03;;;2.83;;
2259;SDS011;333;48.800;9.530;2023-02-01T07:09:32;3.00;;;2.60;;
2259;SDS011;333;48.800;9.530;2023-02-01T07:11:59;1.63;;;1.50;;
2259;SDS011;333;48.800;9.530;2023-02-01T07:14:27;2.77;;;2.50;;
2259;SDS011;333;48.800;9.530;2023-02-01T07:16:54;2.13;;;1.93;;
2259;SDS011;333;48.800;9.530;2023-02-01T07:19:23;2.60;;;2.37;;
2259;SDS011;333;48.800;9.530;2023-02-01T07:21:50;2.30;;;2.07;;
2259;SDS011;333;48.800;9.530;2023-02-01T07:24:18;3.33;;;2.57;;
2259;SDS011;333;48.800;9.530;2023-02-01T07:26:45;7.07;;;2.47;;
2259;SDS011;333;48.800;9.530;2023-02-01T07:29:16;4.20;;;2.47;;
2259;SDS011;333;48.800;9.530;2023-02-01T07:31:43;2.30;;;2.10;;
2259;SDS011;333;48.800;9.530;2023-02-01T07:34:10;2.77;;;2.53;;
2259;SDS011;333;48.800;9.530;2023-02-01T07:36:39;4.10;;;2.30;;
2259;SDS011;333;48.800;9.530;2023-02-01T07:39:07;2.33;;;2.13;;
2259;SDS011;333;48.800;9.530;2023-02-01T07:41:34;2.27;;;2.17;;
2259;SDS011;333;48.800;9.530;2023-02-01T07:44:01;2.80;;;2.60;;
2259;SDS011;333;48.800;9.530;2023-02-01T07:46:29;2.60;;;2.40;;
2259;SDS011;333;48.800;9.530;2023-02-01T07:48:56;4.30;;;2.80;;
2259;SDS011;333;48.800;9.530;2023-02-01T07:51:23;3.37;;;2.27;;
2259;SDS011;333;48.800;9.530;2023-02-01T07:53:52;3.23;;;2.27;;
2259;SDS011;333;48.800;9.530;2023-02-01T07:56:20;2.50;;;2.30;;
2259;SDS011;333;48.800;9.530;2023-02-01T07:58:48;3.13;;;2.60;;
2259;SDS011;333;48.800;9.530;2023-02-01T08:01:19;3.73;;;3.43;;
2259;SDS011;333;48.800;9.530;2023-02-01T08:03:45;1.80;;;1.70;;
2259;SDS011;333;48.800;9.530;2023-02-01T08:06:14;6.40;;;2.20;;
2259;SDS011;333;48.800;9.530;2023-02-01T08:08:41;2.60;;;2.40;;
2259;SDS011;333;48.800;9.530;2023-02-01T08:11:13;3.03;;;2.53;;
2259;SDS011;333;48.800;9.530;2023-02-01T08:13:41;2.70;;;2.50;;
2259;SDS011;333;48.800;9.530;2023-02-01T08:16:09;2.60;;;2.33;;
2259;SDS011;333;48.800;9.530;2023-02-01T08:18:37;3.20;;;2.30;;
2259;SDS011;333;48.800;9.530;2023-02-01T08:21:08;2.53;;;2.30;;
2259;SDS011;333;48.800;9.530;2023-02-01T08:23:37;2.90;;;2.60;;
2259;SDS011;333;48.800;9.530;2023-02-01T08:26:05;3.90;;;2.20;;
2259;SDS011;333;48.800;9.530;2023-02-01T08:28:36;2.57;;;2.37;;
2259;SDS011;333;48.800;9.530;2023-02-01T08:31:07;3.20;;;2.30;;
2259;SDS011;333;48.800;9.530;2023-02-01T08:33:35;2.20;;;2.07;;
2259;SDS011;333;48.800;9.530;2023-02-01T08:36:03;3.10;;;2.40;;
2259;SDS011;333;48.800;9.530;2023-02-01T08:38:31;2.67;;;2.47;;
2259;SDS011;333;48.800;9.530;2023-02-01T08:41:03;2.97;;;2.77;;
2259;SDS011;333;48.800;9.530;2023-02-01T08:43:30;3.80;;;2.93;;
2259;SDS011;333;48.800;9.530;2023-02-01T08:45:59;3.50;;;3.00;;
2259;SDS011;333;48.800;9.530;2023-02-01T08:48:27;2.47;;;2.27;;
2259;SDS011;333;48.800;9.530;2023-02-01T08:50:54;2.43;;;2.13;;
2259;SDS011;333;48.800;9.530;2023-02-01T08:53:21;2.70;;;2.50;;
2259;SDS011;333;48.800;9.530;2023-02-01T08:55:49;2.30;;;2.20;;
2259;SDS011;333;48.800;9.530;2023-02-01T08:58:16;3.60;;;2.80;;
2259;SDS011;333;48.800;9.530;2023-02-01T09:00:44;3.67;;;2.40;;
2259;SDS011;333;48.800;9.530;2023-02-01T09:03:14;2.87;;;2.67;;
2259;SDS011;333;48.800;9.530;2023-02-01T09:05:41;2.50;;;2.10;;
2259;SDS011;333;48.800;9.530;2023-02-01T09:08:10;3.50;;;2.20;;
2259;SDS011;333;48.800;9.530;2023-02-01T09:10:39;2.80;;;2.60;;
2259;SDS011;333;48.800;9.530;2023-02-01T09:13:07;3.40;;;3.10;;
2259;SDS011;333;48.800;9.530;2023-02-01T09:15:34;2.30;;;2.10;;
2259;SDS011;333;48.800;9.530;2023-02-01T09:18:01;2.60;;;2.40;;
2259;SDS011;333;48.800;9.530;2023-02-01T09:20:30;2.57;;;2.37;;
2259;SDS011;333;48.800;9.530;2023-02-01T09:22:57;3.70;;;3.40;;
2259;SDS011;333;48.800;9.530;2023-02-01T09:25:25;4.40;;;2.80;;
2259;SDS011;333;48.800;9.530;2023-02-01T09:27:52;2.40;;;2.20;;
2259;SDS011;333;48.800;9.530;2023-02-01T09:30:19;2.57;;;2.37;;
2259;SDS011;333;48.800;9.530;2023-02-01T09:32:47;2.43;;;2.23;;
2259;SDS011;333;48.800;9.530;2023-02-01T09:35:14;2.87;;;2.67;;
2259;SDS011;333;48.800;9.530;2023-02-01T09:37:43;6.10;;;2.30;;
2259;SDS011;333;48.800;9.530;2023-02-01T09:40:12;4.70;;;2.43;;
2259;SDS011;333;48.800;9.530;2023-02-01T09:42:47;2.27;;;2.10;;
2259;SDS011;333;48.800;9.530;2023-02-01T09:45:18;2.53;;;2.30;;
2259;SDS011;333;48.800;9.530;2023-02-01T09:47:49;3.07;;;2.70;;
2259;SDS011;333;48.800;9.530;2023-02-01T09:50:18;3.23;;;2.67;;
2259;SDS011;333;48.800;9.530;2023-02-01T09:52:50;3.40;;;3.03;;
2259;SDS011;333;48.800;9.530;2023-02-01T09:55:21;4.53;;;2.93;;
2259;SDS011;333;48.800;9.530;2023-02-01T09:57:51;4.00;;;3.07;;
2259;SDS011;333;48.800;9.530;2023-02-01T10:00:23;4.53;;;2.70;;
2259;SDS011;333;48.800;9.530;2023-02-01T10:02:51;2.93;;;2.63;;
2259;SDS011;333;48.800;9.530;2023-02-01T10:05:23;3.33;;;3.00;;
2259;SDS011;333;48.800;9.530;2023-02-01T10:07:54;2.90;;;2.50;;
2259;SDS011;333;48.800;9.530;2023-02-01T10:10:27;3.10;;;2.90;;
2259;SDS011;333;48.800;9.530;2023-02-01T10:12:58;3.10;;;2.80;;
2259;SDS011;333;48.800;9.530;2023-02-01T10:15:49;5.00;;;2.60;;
2259;SDS011;333;48.800;9.530;2023-02-01T10:18:27;2.60;;;2.40;;
2259;SDS011;333;48.800;9.530;2023-02-01T10:20:57;6.00;;;2.67;;
2259;SDS011;333;48.800;9.530;2023-02-01T10:23:41;3.23;;;2.93;;
2259;SDS011;333;48.800;9.530;2023-02-01T10:26:15;3.50;;;3.07;;
2259;SDS011;333;48.800;9.530;2023-02-01T10:28:44;10.47;;;3.80;;
2259;SDS011;333;48.800;9.530;2023-02-01T10:31:13;3.57;;;2.83;;
2259;SDS011;333;48.800;9.530;2023-02-01T10:33:42;3.63;;;3.07;;
2259;SDS011;333;48.800;9.530;2023-02-01T10:36:13;2.60;;;2.40;;
2259;SDS011;333;48.800;9.530;2023-02-01T10:38:45;2.87;;;2.53;;
2259;SDS011;333;48.800;9.530;2023-02-01T10:41:13;7.33;;;3.07;;
2259;SDS011;333;48.800;9.530;2023-02-01T10:43:44;5.13;;;3.00;;
2259;SDS011;333;48.800;9.530;2023-02-01T10:46:14;7.10;;;2.80;;
2259;SDS011;333;48.800;9.530;2023-02-01T10:48:42;5.67;;;2.80;;
2259;SDS011;333;48.800;9.530;2023-02-01T10:51:11;4.43;;;3.10;;
2259;SDS011;333;48.800;9.530;2023-02-01T10:53:41;4.93;;;3.37;;
2259;SDS011;333;48.800;9.530;2023-02-01T10:56:13;3.83;;;2.37;;
2259;SDS011;333;48.800;9.530;2023-02-01T10:58:43;6.50;;;3.20;;
2259;SDS011;333;48.800;9.530;2023-02-01T11:01:15;5.07;;;2.50;;
2259;SDS011;333;48.800;9.530;2023-02-01T11:03:44;4.13;;;3.17;;
2259;SDS011;333;48.800;9.530;2023-02-01T11:06:13;3.87;;;2.90;;
2259;SDS011;333;48.800;9.530;2023-02-01T11:08:47;3.77;;;2.73;;
2259;SDS011;333;48.800;9.530;2023-02-01T11:11:17;10.63;;;3.97;;
2259;SDS011;333;48.800;9.530;2023-02-01T11:13:44;4.77;;;3.10;;
2259;SDS011;333;48.800;9.530;2023-02-01T11:16:18;7.50;;;2.40;;
2259;SDS011;333;48.800;9.530;2023-02-01T11:18:45;5.90;;;2.70;;
2259;SDS011;333;48.800;9.530;2023-02-01T11:21:19;5.47;;;2.83;;
2259;SDS011;333;48.800;9.530;2023-02-01T11:23:47;6.17;;;2.77;;
2259;SDS011;333;48.800;9.530;2023-02-01T11:26:20;3.27;;;2.30;;
2259;SDS011;333;48.800;9.530;2023-02-01T11:28:50;2.90;;;2.10;;
2259;SDS011;333;48.800;9.530;2023-02-01T11:31:18;4.83;;;2.53;;
2259;SDS011;333;48.800;9.530;2023-02-01T11:33:49;7.70;;;3.40;;
2259;SDS011;333;48.800;9.530;2023-02-01T11:36:20;16.83;;;8.37;;
2259;SDS011;333;48.800;9.530;2023-02-01T11:38:51;28.87;;;14.43;;
2259;SDS011;333;48.800;9.530;2023-02-01T11:41:24;10.17;;;4.37;;
2259;SDS011;333;48.800;9.530;2023-02-01T11:43:55;6.67;;;2.90;;
2259;SDS011;333;48.800;9.530;2023-02-01T11:46:26;8.40;;;3.03;;
2259;SDS011;333;48.800;9.530;2023-02-01T11:48:55;9.30;;;2.93;;
2259;SDS011;333;48.800;9.530;2023-02-01T11:51:27;7.37;;;2.90;;
2259;SDS011;333;48.800;9.530;2023-02-01T11:56:46;6.17;;;3.20;;
2259;SDS011;333;48.800;9.530;2023-02-01T11:59:22;7.50;;;2.03;;
2259;SDS011;333;48.800;9.530;2023-02-01T12:02:06;6.80;;;3.27;;
2259;SDS011;333;48.800;9.530;2023-02-01T12:04:42;8.37;;;2.97;;
2259;SDS011;333;48.800;9.530;2023-02-01T12:07:14;7.83;;;3.40;;
2259;SDS011;333;48.800;9.530;2023-02-01T12:09:54;5.90;;;3.07;;
2259;SDS011;333;48.800;9.530;2023-02-01T12:12:28;3.73;;;2.50;;
2259;SDS011;333;48.800;9.530;2023-02-01T12:15:08;3.73;;;2.23;;
2259;SDS011;333;48.800;9.530;2023-02-01T12:20:28;7.60;;;2.77;;
2259;SDS011;333;48.800;9.530;2023-02-01T12:23:02;5.47;;;3.40;;
2259;SDS011;333;48.800;9.530;2023-02-01T12:25:35;4.70;;;2.53;;
2259;SDS011;333;48.800;9.530;2023-02-01T12:28:22;8.67;;;3.10;;
2259;SDS011;333;48.800;9.530;2023-02-01T12:30:58;9.30;;;3.30;;
2259;SDS011;333;48.800;9.530;2023-02-01T12:33:31;6.83;;;2.40;;
2259;SDS011;333;48.800;9.530;2023-02-01T12:36:06;5.03;;;2.40;;
2259;SDS011;333;48.800;9.530;2023-02-01T12:38:41;8.80;;;2.73;;
2259;SDS011;333;48.800;9.530;2023-02-01T12:41:16;7.07;;;2.83;;
2259;SDS011;333;48.800;9.530;2023-02-01T12:43:50;6.27;;;2.07;;
2259;SDS011;333;48.800;9.530;2023-02-01T12:46:21;4.00;;;1.90;;
2259;SDS011;333;48.800;9.530;2023-02-01T12:48:52;5.33;;;1.87;;
2259;SDS011;333;48.800;9.530;2023-02-01T12:51:21;2.60;;;1.80;;
2259;SDS011;333;48.800;9.530;2023-02-01T12:53:50;4.13;;;2.07;;
2259;SDS011;333;48.800;9.530;2023-02-01T12:56:20;5.27;;;2.03;;
2259;SDS011;333;48.800;9.530;2023-02-01T12:58:50;3.90;;;3.20;;
2259;SDS011;333;48.800;9.530;2023-02-01T13:01:20;7.73;;;4.67;;
2259;SDS011;333;48.800;9.530;2023-02-01T13:03:52;8.00;;;3.00;;
2259;SDS011;333;48.800;9.530;2023-02-01T13:06:21;3.37;;;2.10;;
2259;SDS011;333;48.800;9.530;2023-02-01T13:08:50;3.97;;;2.20;;
2259;SDS011;333;48.800;9.530;2023-02-01T13:11:20;5.03;;;2.70;;
2259;SDS011;333;48.800;9.530;2023-02-01T13:13:55;5.87;;;2.40;;
2259;SDS011;333;48.800;9.530;2023-02-01T13:16:26;4.93;;;3.17;;
2259;SDS011;333;48.800;9.530;2023-02-01T13:18:59;3.20;;;2.20;;
2259;SDS011;333;48.800;9.530;2023-02-01T13:21:28;7.40;;;2.83;;
2259;SDS011;333;48.800;9.530;2023-02-01T13:23:57;8.37;;;3.10;;
2259;SDS011;333;48.800;9.530;2023-02-01T13:26:25;4.70;;;2.07;;
2259;SDS011;333;48.800;9.530;2023-02-01T13:28:55;6.60;;;2.07;;
2259;SDS011;333;48.800;9.530;2023-02-01T13:37:05;5.50;;;3.30;;
2259;SDS011;333;48.800;9.530;2023-02-01T13:39:43;2.80;;;1.80;;
2259;SDS011;333;48.800;9.530;2023-02-01T13:42:13;11.03;;;3.17;;
2259;SDS011;333;48.800;9.530;2023-02-01T13:44:48;2.67;;;1.83;;
2259;SDS011;333;48.800;9.530;2023-02-01T13:47:24;5.53;;;3.30;;
2259;SDS011;333;48.800;9.530;2023-02-01T13:49:53;6.83;;;2.67;;
2259;SDS011;333;48.800;9.530;2023-02-01T13:55:14;12.60;;;4.10;;
2259;SDS011;333;48.800;9.530;2023-02-01T13:57:43;6.50;;;2.33;;
2259;SDS011;333;48.800;9.530;2023-02-01T14:00:25;7.83;;;3.37;;
2259;SDS011;333;48.800;9.530;2023-02-01T14:03:02;5.43;;;2.47;;
2259;SDS011;333;48.800;9.530;2023-02-01T14:08:23;4.73;;;2.50;;
2259;SDS011;333;48.800;9.530;2023-02-01T14:10:52;3.20;;;2.10;;
2259;SDS011;333;48.800;9.530;2023-02-01T14:13:25;7.80;;;2.50;;
2259;SDS011;333;48.800;9.530;2023-02-01T14:21:25;8.77;;;3.20;;
2259;SDS011;333;48.800;9.530;2023-02-01T14:23:56;7.27;;;2.50;;
2259;SDS011;333;48.800;9.530;2023-02-01T14:26:25;4.63;;;2.47;;
2259;SDS011;333;48.800;9.530;2023-02-01T14:28:55;4.50;;;2.17;;
2259;SDS011;333;48.800;9.530;2023-02-01T14:31:43;5.50;;;2.43;;
2259;SDS011;333;48.800;9.530;2023-02-01T14:34:13;8.67;;;3.00;;
2259;SDS011;333;48.800;9.530;2023-02-01T14:36:48;12.90;;;6.03;;
2259;SDS011;333;48.800;9.530;2023-02-01T14:39:24;11.90;;;4.20;;
2259;SDS011;333;48.800;9.530;2023-02-01T14:41:52;3.57;;;2.13;;
2259;SDS011;333;48.800;9.530;2023-02-01T14:44:25;7.87;;;3.20;;
2259;SDS011;333;48.800;9.530;2023-02-01T14:47:06;6.23;;;3.07;;
2259;SDS011;333;48.800;9.530;2023-02-01T14:49:34;8.07;;;3.20;;
2259;SDS011;333;48.800;9.530;2023-02-01T14:52:06;4.47;;;3.37;;
2259;SDS011;333;48.800;9.530;2023-02-01T14:54:36;8.90;;;3.10;;
2259;SDS011;333;48.800;9.530;2023-02-01T14:57:04;8.67;;;2.80;;
2259;SDS011;333;48.800;9.530;2023-02-01T14:59:31;5.63;;;2.47;;
2259;SDS011;333;48.800;9.530;2023-02-01T15:02:01;5.00;;;2.70;;
2259;SDS011;333;48.800;9.530;2023-02-01T15:04:30;5.03;;;2.67;;
2259;SDS011;333;48.800;9.530;2023-02-01T15:07:11;9.23;;;3.37;;
2259;SDS011;333;48.800;9.530;2023-02-01T15:09:39;4.77;;;2.53;;
2259;SDS011;333;48.800;9.530;2023-02-01T15:12:15;3.90;;;2.70;;
2259;SDS011;333;48.800;9.530;2023-02-01T15:14:46;9.00;;;2.83;;
2259;SDS011;333;48.800;9.530;2023-02-01T15:17:18;5.73;;;3.20;;
2259;SDS011;333;48.800;9.530;2023-02-01T15:19:52;7.17;;;3.00;;
2259;SDS011;333;48.800;9.530;2023-02-01T15:22:21;5.00;;;2.67;;
2259;SDS011;333;48.800;9.530;2023-02-01T15:24:51;4.67;;;2.97;;
2259;SDS011;333;48.800;9.530;2023-02-01T15:27:19;10.93;;;4.10;;
2259;SDS011;333;48.800;9.530;2023-02-01T15:29:47;3.30;;;2.20;;
2259;SDS011;333;48.800;9.530;2023-02-01T15:32:27;4.33;;;2.60;;
2259;SDS011;333;48.800;9.530;2023-02-01T15:34:56;8.53;;;2.67;;
2259;SDS011;333;48.800;9.530;2023-02-01T15:37:24;8.77;;;3.40;;
2259;SDS011;333;48.800;9.530;2023-02-01T15:40:05;6.07;;;2.70;;
2259;SDS011;333;48.800;9.530;2023-02-01T15:42:48;8.70;;;3.83;;
2259;SDS011;333;48.800;9.530;2023-02-01T15:45:18;6.00;;;2.97;;
2259;SDS011;333;48.800;9.530;2023-02-01T15:47:46;3.70;;;2.17;;
2259;SDS011;333;48.800;9.530;2023-02-01T15:50:15;7.43;;;2.73;;
2259;SDS011;333;48.800;9.530;2023-02-01T15:52:45;9.40;;;2.30;;
2259;SDS011;333;48.800;9.530;2023-02-01T15:55:17;9.17;;;3.07;;
2259;SDS011;333;48.800;9.530;2023-02-01T15:57:46;5.37;;;3.10;;
2259;SDS011;333;48.800;9.530;2023-02-01T16:00:19;8.67;;;2.70;;
2259;SDS011;333;48.800;9.530;2023-02-01T16:02:51;3.67;;;2.30;;
2259;SDS011;333;48.800;9.530;2023-02-01T16:05:26;4.97;;;2.63;;
2259;SDS011;333;48.800;9.530;2023-02-01T16:07:56;5.60;;;2.70;;
2259;SDS011;333;48.800;9.530;2023-02-01T16:10:29;6.80;;;4.17;;
2259;SDS011;333;48.800;9.530;2023-02-01T16:12:57;2.80;;;2.40;;
2259;SDS011;333;48.800;9.530;2023-02-01T16:15:25;6.97;;;3.07;;
2259;SDS011;333;48.800;9.530;2023-02-01T16:17:54;5.60;;;3.70;;